Time;durP1;ratioP1;P1;durP2;ratioP2;P2;SDS_P1;SDS_P2;PMS_P1;PMS_P2;Temp;Humidity;BMP_temperature;BMP_pressure;BME280_temperature;BME280_humidity;BME280_pressure;Samples;Min_cycle;Max_cycle;Signal;HPM_P1;HPM_P2
2022/06/08 00:01:16;;;;;;;6.28;1.80;;;15.60;99.90;;;;;;4889617;29;20052;-58
2022/06/08 00:03:48;;;;;;;4.63;1.50;;;15.60;99.90;;;;;;4891255;29;20053;-57
2022/06/08 00:06:17;;;;;;;8.50;2.42;;;15.50;99.90;;;;;;4889209;29;20501;-58
2022/06/08 00:08:45;;;;;;;8.80;2.67;;;15.50;99.90;;;;;;4888539;29;20053;-57
2022/06/08 00:11:14;;;;;;;3.38;1.33;;;15.50;99.90;;;;;;4890691;29;20049;-58
2022/06/08 00:13:42;;;;;;;3.28;1.80;;;15.40;99.90;;;;;;4890672;29;20056;-57
2022/06/08 00:16:11;;;;;;;6.28;1.75;;;15.30;99.90;;;;;;4893954;29;20485;-58
2022/06/08 00:18:40;;;;;;;4.10;1.60;;;15.30;99.90;;;;;;4889842;29;20506;-58
2022/06/08 00:21:08;;;;;;;5.82;2.10;;;15.20;99.90;;;;;;4888941;29;20056;-57
2022/06/08 00:23:37;;;;;;;4.60;1.50;;;15.10;99.90;;;;;;4891818;29;20055;-57
2022/06/08 00:26:06;;;;;;;5.97;1.88;;;15.10;99.90;;;;;;4891779;29;20056;-57
2022/06/08 00:28:34;;;;;;;3.05;1.60;;;15.00;99.90;;;;;;4889707;29;20045;-58
2022/06/08 00:31:02;;;;;;;5.82;2.10;;;15.00;99.90;;;;;;4890083;29;20052;-56
2022/06/08 00:33:31;;;;;;;2.22;1.50;;;15.00;99.90;;;;;;4885889;29;20048;-56
2022/06/08 00:36:00;;;;;;;4.47;1.47;;;14.90;99.90;;;;;;4891907;29;20047;-57
2022/06/08 00:38:28;;;;;;;7.30;2.03;;;14.90;99.90;;;;;;4891150;29;20512;-57
2022/06/08 00:41:22;;;;;;;3.33;1.75;;;14.90;99.90;;;;;;4888441;29;20056;-57
2022/06/08 00:43:52;;;;;;;3.67;1.55;;;14.80;99.90;;;;;;4891102;29;20513;-57
2022/06/08 00:46:20;;;;;;;3.80;1.83;;;14.70;99.90;;;;;;4891206;29;20060;-57
2022/06/08 00:48:54;;;;;;;7.57;2.08;;;14.70;99.90;;;;;;4890378;29;20410;-56
2022/06/08 00:51:21;;;;;;;1.67;1.58;;;14.60;99.90;;;;;;4887654;29;20049;-55
2022/06/08 00:53:59;;;;;;;5.65;2.10;;;14.60;99.90;;;;;;4887401;29;20067;-57
2022/06/08 00:56:34;;;;;;;5.18;2.00;;;14.50;99.90;;;;;;4891661;29;20041;-56
2022/06/08 00:59:03;;;;;;;2.92;1.70;;;14.50;99.90;;;;;;4890714;29;20409;-56
2022/06/08 01:01:31;;;;;;;4.13;2.28;;;14.50;99.90;;;;;;4889068;29;20053;-55
2022/06/08 01:04:12;;;;;;;3.58;1.75;;;14.40;99.90;;;;;;4886758;29;20076;-56
2022/06/08 01:06:46;;;;;;;8.85;2.33;;;14.40;99.90;;;;;;4879796;29;20044;-54
2022/06/08 01:09:21;;;;;;;5.93;2.00;;;14.40;99.90;;;;;;4888093;29;20052;-56
2022/06/08 01:11:48;;;;;;;3.10;2.00;;;14.30;99.90;;;;;;4887436;29;20072;-56
2022/06/08 01:14:19;;;;;;;3.20;2.05;;;14.30;99.90;;;;;;4884735;29;20053;-57
2022/06/08 01:16:58;;;;;;;3.10;1.92;;;14.30;99.90;;;;;;4889884;29;20517;-57
2022/06/08 01:19:27;;;;;;;2.97;2.00;;;14.30;99.90;;;;;;4891273;29;20663;-56
2022/06/08 01:21:59;;;;;;;3.88;2.78;;;14.30;99.90;;;;;;4890430;29;20044;-57
2022/06/08 01:24:51;;;;;;;4.45;2.08;;;14.20;99.90;;;;;;4889046;29;20043;-57
2022/06/08 01:27:38;;;;;;;6.72;2.40;;;14.20;99.90;;;;;;4893736;29;20057;-56
2022/06/08 01:30:25;;;;;;;5.07;2.33;;;14.30;99.90;;;;;;4891105;29;20059;-57
2022/06/08 01:33:29;;;;;;;5.93;2.40;;;14.30;99.90;;;;;;4881409;29;20525;-57
2022/06/08 01:36:32;;;;;;;6.00;2.80;;;14.30;99.90;;;;;;4895086;29;20386;-57
2022/06/08 01:39:03;;;;;;;5.63;2.60;;;14.30;99.90;;;;;;4895186;29;20493;-57
2022/06/08 01:41:49;;;;;;;5.97;2.17;;;14.30;99.90;;;;;;4891784;29;20052;-58
2022/06/08 01:45:28;;;;;;;5.25;2.17;;;14.30;99.90;;;;;;4892235;29;20037;-57
2022/06/08 01:47:53;;;;;;;10.25;2.42;;;14.30;99.90;;;;;;4889962;29;20053;-57
2022/06/08 01:50:50;;;;;;;4.32;2.53;;;14.40;99.90;;;;;;4890649;29;20048;-57
2022/06/08 01:53:42;;;;;;;3.72;2.45;;;14.30;99.90;;;;;;4893724;29;20075;-58
2022/06/08 01:56:19;;;;;;;5.90;2.33;;;14.30;99.90;;;;;;4895748;29;20052;-56
2022/06/08 01:59:02;;;;;;;3.22;2.40;;;14.30;99.90;;;;;;4894260;29;20044;-57
2022/06/08 02:01:30;;;;;;;5.07;2.38;;;14.30;99.90;;;;;;4895621;29;20041;-57
2022/06/08 02:04:18;;;;;;;3.33;2.22;;;14.30;99.90;;;;;;4879600;29;20397;-57
2022/06/08 02:07:08;;;;;;;4.25;2.08;;;14.20;99.90;;;;;;4892777;29;20055;-58
2022/06/08 02:10:08;;;;;;;6.68;2.40;;;14.20;99.90;;;;;;4893707;29;20056;-57
2022/06/08 02:12:43;;;;;;;3.15;2.58;;;14.20;99.90;;;;;;4879066;29;20040;-57
2022/06/08 02:15:43;;;;;;;5.32;2.70;;;14.20;99.90;;;;;;4894148;29;20055;-57
2022/06/08 02:18:41;;;;;;;8.40;2.40;;;14.30;99.90;;;;;;4889994;29;20489;-57
2022/06/08 02:21:23;;;;;;;4.20;2.53;;;14.30;99.90;;;;;;4892326;29;20063;-58
2022/06/08 02:23:57;;;;;;;5.47;2.22;;;14.20;99.90;;;;;;4888238;29;20040;-56
2022/06/08 02:26:34;;;;;;;8.30;3.47;;;14.20;99.90;;;;;;4893317;29;20422;-57
2022/06/08 02:29:15;;;;;;;4.80;2.75;;;14.20;99.90;;;;;;4893611;29;20053;-57
2022/06/08 02:31:49;;;;;;;6.32;2.63;;;14.30;99.90;;;;;;4892793;29;20040;-57
2022/06/08 02:34:36;;;;;;;7.72;2.97;;;14.30;99.90;;;;;;4894799;29;20055;-57
2022/06/08 02:37:21;;;;;;;6.68;3.47;;;14.30;99.90;;;;;;4895578;29;20061;-57
2022/06/08 02:40:06;;;;;;;6.88;2.90;;;14.30;99.90;;;;;;4891956;29;20052;-56
2022/06/08 02:43:00;;;;;;;3.47;2.63;;;14.30;99.90;;;;;;4890110;29;20056;-54
2022/06/08 02:45:34;;;;;;;5.80;3.10;;;14.40;99.90;;;;;;4895457;29;20045;-58
2022/06/08 02:48:05;;;;;;;10.88;2.75;;;14.40;99.90;;;;;;4876943;29;20056;-56
2022/06/08 02:50:34;;;;;;;4.25;2.75;;;14.40;99.90;;;;;;4893821;29;20401;-57
2022/06/08 02:53:16;;;;;;;6.30;2.67;;;14.40;99.90;;;;;;4893674;29;20040;-55
2022/06/08 02:55:55;;;;;;;4.95;2.33;;;14.40;99.90;;;;;;4893679;29;20489;-57
2022/06/08 02:58:35;;;;;;;2.78;2.08;;;14.40;99.90;;;;;;4893179;29;20044;-57
2022/06/08 03:01:12;;;;;;;4.85;3.03;;;14.40;99.90;;;;;;4894154;29;20052;-57
2022/06/08 03:04:10;;;;;;;4.70;2.45;;;14.30;99.90;;;;;;4892548;29;20508;-56
2022/06/08 03:06:47;;;;;;;5.68;2.78;;;14.30;99.90;;;;;;4883395;29;20067;-56
2022/06/08 03:09:17;;;;;;;6.32;2.58;;;14.40;99.90;;;;;;4893455;29;20479;-56
2022/06/08 03:11:51;;;;;;;4.28;2.67;;;14.40;99.90;;;;;;4880052;29;20045;-56
2022/06/08 03:14:19;;;;;;;5.88;2.50;;;14.40;99.90;;;;;;4893013;29;20040;-56
2022/06/08 03:17:05;;;;;;;6.73;2.20;;;14.40;99.90;;;;;;4892881;29;20062;-55
2022/06/08 03:19:35;;;;;;;6.18;2.15;;;14.40;99.90;;;;;;4896446;29;20306;-56
2022/06/08 03:22:05;;;;;;;3.92;2.50;;;14.30;99.90;;;;;;4897260;29;20060;-55
2022/06/08 03:24:34;;;;;;;3.25;1.88;;;14.30;99.90;;;;;;4897733;29;20048;-56
2022/06/08 03:27:06;;;;;;;4.72;1.95;;;14.40;99.90;;;;;;4896508;29;20054;-56
2022/06/08 03:29:34;;;;;;;1.80;1.70;;;14.30;99.90;;;;;;4896765;29;20044;-55
2022/06/08 03:32:04;;;;;;;6.32;2.05;;;14.40;99.90;;;;;;4897806;29;20055;-56
2022/06/08 03:34:33;;;;;;;4.60;1.77;;;14.40;99.90;;;;;;4893873;29;20044;-55
2022/06/08 03:37:01;;;;;;;3.72;2.10;;;14.40;99.90;;;;;;4898365;29;20052;-55
2022/06/08 03:39:30;;;;;;;3.38;2.40;;;14.40;99.90;;;;;;4879394;29;20045;-55
2022/06/08 03:42:00;;;;;;;2.55;1.80;;;14.40;99.90;;;;;;4897407;29;20052;-57
2022/06/08 03:44:28;;;;;;;3.28;2.35;;;14.40;99.90;;;;;;4898511;29;20044;-57
2022/06/08 03:47:12;;;;;;;6.05;2.55;;;14.40;99.90;;;;;;4895352;29;20052;-57
2022/06/08 03:49:39;;;;;;;4.25;2.40;;;14.50;99.90;;;;;;4896816;29;20051;-57
2022/06/08 03:52:17;;;;;;;3.08;1.88;;;14.40;99.90;;;;;;4899457;29;20056;-57
2022/06/08 03:54:48;;;;;;;3.35;1.90;;;14.40;99.90;;;;;;4883759;29;20037;-57
2022/06/08 03:57:18;;;;;;;5.05;2.00;;;14.40;99.90;;;;;;4897343;29;20037;-57
2022/06/08 03:59:48;;;;;;;4.35;2.85;;;14.40;99.90;;;;;;4894964;29;20044;-57
2022/06/08 04:02:17;;;;;;;3.80;2.40;;;14.40;99.90;;;;;;4897234;29;20386;-57
2022/06/08 04:04:47;;;;;;;4.38;2.35;;;14.50;99.90;;;;;;4897353;29;20045;-56
2022/06/08 04:07:16;;;;;;;4.43;2.58;;;14.40;99.90;;;;;;4894894;29;20049;-57
2022/06/08 04:09:47;;;;;;;3.88;2.30;;;14.50;99.90;;;;;;4894002;29;20478;-56
2022/06/08 04:12:16;;;;;;;3.10;1.92;;;14.50;99.90;;;;;;4895101;29;20045;-57
2022/06/08 04:14:45;;;;;;;;;;;14.50;99.90;;;;;;4909693;29;20045;-56
2022/06/08 04:17:14;;;;;;;6.17;2.70;;;14.40;99.90;;;;;;4878551;29;20405;-57
2022/06/08 04:19:42;;;;;;;4.60;2.35;;;14.40;99.90;;;;;;4880857;29;20052;-56
2022/06/08 04:22:10;;;;;;;3.78;2.80;;;14.50;99.90;;;;;;4895065;29;20532;-57
2022/06/08 04:24:42;;;;;;;3.78;2.40;;;14.40;99.90;;;;;;4880887;29;20614;-58
2022/06/08 04:27:12;;;;;;;2.47;2.28;;;14.50;99.90;;;;;;4881155;29;20058;-57
2022/06/08 04:29:43;;;;;;;2.20;2.00;;;14.50;99.90;;;;;;4895221;29;20040;-56
2022/06/08 04:32:12;;;;;;;3.92;2.15;;;14.50;99.90;;;;;;4891980;29;20531;-56
2022/06/08 04:34:43;;;;;;;4.20;2.33;;;14.50;99.90;;;;;;4911762;29;20052;-56
2022/06/08 04:37:13;;;;;;;2.95;2.65;;;14.50;99.90;;;;;;4896365;29;20051;-56
2022/06/08 04:39:45;;;;;;;3.13;2.13;;;14.50;99.90;;;;;;4896889;29;20049;-57
2022/06/08 04:42:18;;;;;;;2.30;1.90;;;14.50;99.90;;;;;;4894679;29;20508;-57
2022/06/08 04:44:47;;;;;;;1.80;1.63;;;14.50;99.90;;;;;;4878882;29;20055;-57
2022/06/08 04:47:19;;;;;;;4.25;1.77;;;14.50;99.90;;;;;;4893519;29;20493;-57
2022/06/08 04:49:48;;;;;;;3.07;2.50;;;14.50;99.90;;;;;;4891239;29;20502;-57
2022/06/08 04:52:17;;;;;;;4.75;2.28;;;14.50;99.90;;;;;;4890883;29;20061;-56
2022/06/08 04:54:45;;;;;;;4.38;2.85;;;14.50;99.90;;;;;;4893054;29;20370;-56
2022/06/08 04:57:14;;;;;;;4.25;2.10;;;14.50;99.90;;;;;;4874745;29;20045;-57
2022/06/08 04:59:45;;;;;;;3.25;2.38;;;14.60;99.90;;;;;;4890553;29;20040;-56
2022/06/08 05:02:42;;;;;;;5.20;2.72;;;14.60;99.90;;;;;;4888534;29;20056;-56
2022/06/08 05:05:14;;;;;;;4.13;2.17;;;14.60;99.90;;;;;;4889385;29;20045;-57
2022/06/08 05:07:42;;;;;;;2.22;1.60;;;14.60;99.90;;;;;;4890662;29;20053;-57
2022/06/08 05:10:11;;;;;;;2.47;1.85;;;14.70;99.90;;;;;;4889428;29;20037;-58
2022/06/08 05:12:41;;;;;;;2.00;1.55;;;14.70;99.90;;;;;;4890930;29;20497;-57
2022/06/08 05:15:14;;;;;;;3.17;1.55;;;14.70;99.90;;;;;;4894315;29;20044;-58
2022/06/08 05:17:42;;;;;;;2.97;1.20;;;14.70;99.90;;;;;;4889505;29;20056;-57
2022/06/08 05:20:13;;;;;;;2.83;1.17;;;14.70;99.90;;;;;;4889816;29;20067;-58
2022/06/08 05:22:44;;;;;;;1.65;1.10;;;14.70;99.90;;;;;;4891657;29;20057;-57
2022/06/08 05:25:15;;;;;;;1.20;0.90;;;14.70;99.90;;;;;;4893008;29;20059;-57
2022/06/08 05:27:43;;;;;;;1.25;0.90;;;14.80;99.90;;;;;;4884800;29;20059;-57
2022/06/08 05:30:13;;;;;;;6.85;1.60;;;14.80;99.90;;;;;;4891911;29;20044;-58
2022/06/08 05:32:43;;;;;;;1.38;0.82;;;14.80;99.90;;;;;;4873318;29;20676;-57
2022/06/08 05:35:12;;;;;;;4.63;0.80;;;14.80;99.90;;;;;;4887790;29;20044;-56
2022/06/08 05:37:41;;;;;;;1.52;0.82;;;14.80;99.90;;;;;;4872243;29;20417;-56
2022/06/08 05:40:10;;;;;;;2.17;0.88;;;14.80;99.90;;;;;;4876408;29;20059;-57
2022/06/08 05:42:39;;;;;;;2.33;1.20;;;14.80;99.90;;;;;;4892885;29;20410;-56
2022/06/08 05:45:14;;;;;;;2.22;0.90;;;14.80;99.90;;;;;;4892643;29;20048;-57
2022/06/08 05:47:43;;;;;;;2.88;0.90;;;14.80;99.90;;;;;;4885806;29;20533;-57
2022/06/08 05:50:18;;;;;;;3.20;0.70;;;14.80;99.90;;;;;;4872890;29;20045;-56
2022/06/08 05:52:49;;;;;;;0.50;0.40;;;14.90;99.90;;;;;;4890766;29;20508;-55
2022/06/08 05:55:19;;;;;;;5.32;0.98;;;14.90;99.90;;;;;;4893341;29;20509;-56
2022/06/08 05:57:46;;;;;;;1.17;0.33;;;15.00;99.90;;;;;;4882020;29;20033;-56
2022/06/08 06:00:20;;;;;;;1.48;0.60;;;15.00;99.90;;;;;;4893338;29;20041;-56
2022/06/08 06:02:48;;;;;;;1.20;0.40;;;15.00;99.90;;;;;;4901526;29;20045;-56
2022/06/08 06:05:20;;;;;;;2.88;0.85;;;15.00;99.90;;;;;;4890640;29;20122;-56
2022/06/08 06:07:49;;;;;;;0.80;0.40;;;15.00;99.90;;;;;;4888966;29;20420;-56
2022/06/08 06:10:43;;;;;;;5.13;0.75;;;15.00;99.90;;;;;;4892974;29;20060;-57
2022/06/08 06:13:13;;;;;;;1.05;0.40;;;15.10;99.90;;;;;;4888176;29;20063;-57
2022/06/08 06:15:51;;;;;;;3.03;0.57;;;15.10;99.90;;;;;;4887449;29;20493;-57
2022/06/08 06:18:19;;;;;;;2.22;0.73;;;15.20;99.90;;;;;;4887313;29;20047;-56
2022/06/08 06:20:57;;;;;;;3.08;0.50;;;15.20;99.90;;;;;;4890653;29;20066;-58
2022/06/08 06:23:42;;;;;;;1.40;0.75;;;15.30;99.90;;;;;;4891790;29;20049;-57
2022/06/08 06:26:33;;;;;;;0.45;0.22;;;15.30;99.90;;;;;;4866801;29;20064;-60
2022/06/08 06:29:17;;;;;;;1.42;0.70;;;15.40;99.90;;;;;;4870663;29;20048;-57
2022/06/08 06:32:22;;;;;;;0.90;0.30;;;15.40;99.90;;;;;;4875638;29;20504;-58
2022/06/08 06:34:54;;;;;;;1.95;0.20;;;15.40;99.90;;;;;;4876476;29;20074;-58
2022/06/08 06:37:22;;;;;;;3.45;0.43;;;15.40;99.90;;;;;;4880495;29;20059;-58
2022/06/08 06:39:51;;;;;;;5.43;0.40;;;15.30;99.90;;;;;;4877802;29;20060;-59
2022/06/08 06:42:29;;;;;;;2.63;0.30;;;15.40;99.90;;;;;;4897821;29;20040;-59
2022/06/08 06:45:23;;;;;;;2.38;0.30;;;15.40;99.90;;;;;;4886689;29;20060;-59
2022/06/08 06:47:58;;;;;;;1.27;0.35;;;15.40;99.90;;;;;;4892390;29;20504;-58
2022/06/08 06:50:28;;;;;;;1.80;0.30;;;15.40;99.90;;;;;;4889929;29;20041;-58
2022/06/08 06:52:59;;;;;;;0.45;0.30;;;15.40;99.90;;;;;;4883454;29;20055;-58
2022/06/08 06:55:38;;;;;;;0.65;0.30;;;15.50;99.90;;;;;;4892595;29;20044;-58
2022/06/08 06:58:32;;;;;;;3.45;0.38;;;15.50;99.90;;;;;;4893602;29;20060;-58
2022/06/08 07:01:02;;;;;;;1.15;0.30;;;15.50;99.90;;;;;;4893385;29;20052;-59
2022/06/08 07:03:33;;;;;;;0.15;0.10;;;15.50;99.90;;;;;;4871318;29;20045;-58
2022/06/08 07:06:01;;;;;;;2.40;0.20;;;15.50;99.90;;;;;;4874956;29;20048;-58
2022/06/08 07:08:29;;;;;;;0.73;0.25;;;15.50;99.90;;;;;;4893808;29;20412;-57
2022/06/08 07:13:47;;;;;;;0.20;0.20;;;15.40;99.90;;;;;;4892818;29;20051;-58
2022/06/08 07:16:16;;;;;;;1.95;0.20;;;15.40;99.90;;;;;;4897185;29;20052;-59
2022/06/08 07:18:44;;;;;;;0.70;0.15;;;15.50;99.90;;;;;;4878457;29;20480;-58
2022/06/08 07:21:14;;;;;;;;;;;15.50;99.90;;;;;;4894472;29;20040;-58
2022/06/08 07:23:42;;;;;;;0.82;0.25;;;15.50;99.90;;;;;;4894397;29;20254;-59
2022/06/08 07:26:10;;;;;;;0.63;0.30;;;15.50;99.90;;;;;;4886664;29;20049;-58
2022/06/08 07:28:39;;;;;;;1.38;0.10;;;15.50;99.90;;;;;;4883951;29;20417;-58
2022/06/08 07:31:06;;;;;;;4.70;1.00;;;15.50;99.90;;;;;;4888526;29;20045;-58
2022/06/08 07:33:34;;;;;;;0.82;0.68;;;15.50;99.90;;;;;;4894345;29;20405;-59
2022/06/08 07:36:03;;;;;;;1.67;0.40;;;15.50;99.90;;;;;;4892815;29;20051;-58
2022/06/08 07:38:32;;;;;;;7.00;0.40;;;15.60;99.90;;;;;;4890386;29;20044;-58
2022/06/08 07:40:59;;;;;;;0.40;0.20;;;15.70;99.90;;;;;;4883333;29;20041;-59
2022/06/08 07:43:27;;;;;;;2.92;0.20;;;15.80;99.90;;;;;;4896728;29;20056;-58
2022/06/08 07:45:55;;;;;;;2.35;0.40;;;15.80;99.90;;;;;;4895850;29;20417;-59
2022/06/08 07:51:10;;;;;;;2.17;0.20;;;15.90;99.90;;;;;;4897839;29;20048;-59
2022/06/08 07:53:39;;;;;;;0.68;0.60;;;16.00;99.90;;;;;;4891829;29;20048;-58
2022/06/08 07:56:07;;;;;;;0.40;0.20;;;16.10;99.90;;;;;;4891088;29;20045;-58
2022/06/08 07:58:35;;;;;;;0.45;0.30;;;16.10;99.90;;;;;;4890327;29;20052;-58
2022/06/08 08:01:05;;;;;;;1.25;0.20;;;16.20;99.90;;;;;;4891300;29;20055;-58
2022/06/08 08:03:34;;;;;;;1.60;0.40;;;16.30;99.90;;;;;;4890904;29;20056;-57
2022/06/08 08:06:02;;;;;;;2.33;0.20;;;16.30;99.90;;;;;;4891620;29;20052;-58
2022/06/08 08:08:29;;;;;;;3.15;0.65;;;16.30;99.90;;;;;;4895067;29;20048;-57
2022/06/08 08:10:57;;;;;;;2.35;0.35;;;16.40;99.90;;;;;;4891181;29;20091;-58
2022/06/08 08:13:25;;;;;;;2.75;0.32;;;16.40;99.90;;;;;;4890541;29;20051;-57
2022/06/08 08:15:52;;;;;;;3.30;0.20;;;16.40;99.90;;;;;;4890523;29;20057;-57
2022/06/08 08:18:20;;;;;;;4.43;0.60;;;16.50;99.90;;;;;;4893924;29;20053;-57
2022/06/08 08:20:48;;;;;;;0.80;0.30;;;16.60;99.90;;;;;;4891371;29;20045;-58
2022/06/08 08:23:16;;;;;;;1.63;0.22;;;16.70;99.90;;;;;;4893168;29;20049;-58
2022/06/08 08:25:44;;;;;;;0.93;0.10;;;16.70;99.90;;;;;;4891912;29;20060;-57
2022/06/08 08:28:11;;;;;;;6.10;0.30;;;16.70;99.90;;;;;;4894500;29;20045;-57
2022/06/08 08:30:39;;;;;;;1.60;0.28;;;16.70;99.90;;;;;;4888569;29;20052;-58
2022/06/08 08:33:07;;;;;;;2.00;0.30;;;16.80;99.90;;;;;;4877128;29;20056;-58
2022/06/08 08:35:35;;;;;;;1.85;0.20;;;16.80;99.90;;;;;;4893762;29;20053;-57
2022/06/08 08:38:03;;;;;;;1.88;0.30;;;16.90;99.90;;;;;;4895750;29;20057;-58
2022/06/08 08:40:55;;;;;;;1.55;0.25;;;17.00;99.90;;;;;;4894702;29;20048;-58
2022/06/08 08:43:29;;;;;;;2.50;0.40;;;17.10;99.90;;;;;;4886920;29;20057;-58
2022/06/08 08:46:25;;;;;;;0.60;0.25;;;17.10;99.90;;;;;;4864484;29;20041;-56
2022/06/08 08:48:59;;;;;;;3.95;0.30;;;17.20;99.90;;;;;;4885237;29;20044;-58
2022/06/08 08:51:34;;;;;;;3.47;0.30;;;17.20;99.90;;;;;;4896563;29;20643;-57
2022/06/08 08:54:16;;;;;;;0.52;0.10;;;17.30;99.90;;;;;;4892239;29;20072;-58
2022/06/08 08:56:43;;;;;;;1.55;0.22;;;17.40;99.90;;;;;;4888528;29;20045;-57
2022/06/08 08:59:18;;;;;;;1.85;0.30;;;17.40;99.90;;;;;;4892174;29;20527;-56
2022/06/08 09:01:52;;;;;;;2.20;0.20;;;17.30;99.90;;;;;;4895209;29;20413;-58
2022/06/08 09:04:28;;;;;;;3.83;0.50;;;17.30;99.90;;;;;;4895925;29;20075;-58
2022/06/08 09:06:56;;;;;;;4.32;0.40;;;17.20;99.90;;;;;;4896301;29;20051;-58
2022/06/08 09:09:33;;;;;;;1.90;0.20;;;17.20;99.90;;;;;;4891108;29;20049;-59
2022/06/08 09:12:03;;;;;;;3.42;0.30;;;17.20;99.90;;;;;;4889610;29;20417;-58
2022/06/08 09:14:58;;;;;;;0.90;0.40;;;17.20;99.90;;;;;;4878096;29;20049;-58
2022/06/08 09:17:33;;;;;;;1.75;0.20;;;17.30;99.90;;;;;;4891181;29;20045;-58
2022/06/08 09:20:20;;;;;;;1.02;0.30;;;17.40;99.90;;;;;;4892647;29;20053;-60
2022/06/08 09:22:52;;;;;;;3.05;0.52;;;17.50;99.90;;;;;;4894391;29;20045;-59
2022/06/08 09:25:27;;;;;;;1.75;0.20;;;17.60;99.90;;;;;;4895970;29;20506;-58
2022/06/08 09:27:57;;;;;;;1.92;0.30;;;17.70;99.90;;;;;;4887627;29;20052;-60
2022/06/08 09:30:28;;;;;;;1.38;0.30;;;17.80;99.90;;;;;;4895578;29;20059;-58
2022/06/08 09:33:26;;;;;;;3.05;1.02;;;17.90;99.90;;;;;;4895569;29;20048;-59
2022/06/08 09:36:04;;;;;;;1.60;0.22;;;17.80;99.90;;;;;;4894566;29;20048;-59
2022/06/08 09:38:40;;;;;;;3.90;0.20;;;17.70;99.90;;;;;;4895617;29;20513;-59
2022/06/08 09:41:32;;;;;;;1.48;0.35;;;17.60;99.90;;;;;;4894267;29;20048;-63
2022/06/08 09:44:12;;;;;;;0.75;0.40;;;17.70;99.90;;;;;;4890512;29;20048;-60
2022/06/08 09:52:58;;;;;;;1.02;0.50;;;17.60;99.90;;;;;;4891899;29;20521;-58
2022/06/08 09:55:44;;;;;;;3.30;0.40;;;17.40;99.90;;;;;;4872890;29;20056;-59
2022/06/08 09:58:24;;;;;;;1.02;0.22;;;16.90;99.90;;;;;;4842177;29;20053;-59
2022/06/08 10:01:18;;;;;;;0.95;0.38;;;16.30;99.90;;;;;;4888345;29;20498;-58
2022/06/08 10:04:10;;;;;;;0.25;0.20;;;15.90;99.90;;;;;;4887389;29;20059;-57
2022/06/08 10:07:10;;;;;;;2.83;0.40;;;15.60;99.90;;;;;;4891144;29;20389;-60
2022/06/08 10:10:10;;;;;;;0.75;0.38;;;15.70;99.90;;;;;;4892458;29;20048;-60
2022/06/08 10:12:59;;;;;;;0.77;0.65;;;15.90;99.90;;;;;;4881030;29;20048;-60
2022/06/08 10:15:47;;;;;;;3.50;0.50;;;16.30;99.90;;;;;;4893770;29;20056;-59
2022/06/08 10:18:26;;;;;;;2.17;0.40;;;16.70;99.90;;;;;;4889959;29;20053;-60
2022/06/08 10:20:59;;;;;;;1.07;0.40;;;16.90;99.90;;;;;;4890455;29;20060;-59
2022/06/08 10:23:41;;;;;;;0.77;0.47;;;16.80;99.90;;;;;;4886219;29;20516;-59
2022/06/08 10:26:58;;;;;;;2.75;0.50;;;16.60;99.90;;;;;;4893551;29;20060;-59
2022/06/08 10:30:06;;;;;;;1.77;0.65;;;16.40;99.90;;;;;;4849049;29;20045;-59
2022/06/08 10:33:00;;;;;;;1.55;0.45;;;16.20;99.90;;;;;;4863862;29;20069;-60
2022/06/08 10:35:41;;;;;;;0.75;0.38;;;16.20;99.90;;;;;;4835206;29;20114;-60
2022/06/08 10:38:20;;;;;;;1.42;0.38;;;16.20;99.90;;;;;;4881507;29;20563;-60
2022/06/08 10:40:53;;;;;;;1.88;0.30;;;16.30;99.90;;;;;;4880680;29;20045;-60
2022/06/08 10:43:25;;;;;;;1.02;0.50;;;16.30;99.90;;;;;;4886283;29;20052;-60
2022/06/08 10:46:02;;;;;;;1.88;0.40;;;16.40;99.90;;;;;;4884623;29;20049;-60
2022/06/08 10:48:45;;;;;;;1.75;0.32;;;16.40;99.90;;;;;;4889188;29;20051;-59
2022/06/08 10:51:17;;;;;;;1.45;0.38;;;16.50;99.90;;;;;;4885911;29;20049;-59
2022/06/08 10:56:55;;;;;;;2.13;0.57;;;17.20;99.90;;;;;;4884912;29;20036;-57
2022/06/08 10:59:29;;;;;;;1.83;0.52;;;17.60;99.90;;;;;;4891215;29;20045;-57
2022/06/08 11:02:12;;;;;;;3.78;1.45;;;17.80;99.90;;;;;;4888247;29;20405;-58
2022/06/08 11:04:57;;;;;;;3.88;0.20;;;18.00;99.90;;;;;;4906108;29;20414;-57
2022/06/08 11:07:27;;;;;;;2.45;0.63;;;18.00;99.90;;;;;;4894250;29;20048;-58
2022/06/08 11:09:58;;;;;;;2.17;0.43;;;17.80;99.90;;;;;;4890883;29;20049;-58
2022/06/08 11:12:46;;;;;;;4.47;0.30;;;17.80;99.90;;;;;;4891951;29;20049;-57
2022/06/08 11:15:34;;;;;;;3.78;0.43;;;17.90;99.90;;;;;;4893309;29;20032;-56
2022/06/08 11:18:12;;;;;;;3.15;0.70;;;18.00;99.90;;;;;;4887984;29;20421;-58
2022/06/08 11:20:50;;;;;;;2.08;0.35;;;18.20;99.90;;;;;;4886046;29;20052;-57
2022/06/08 11:23:34;;;;;;;1.55;0.35;;;18.20;99.90;;;;;;4889762;29;20041;-58
2022/06/08 11:26:05;;;;;;;5.90;0.70;;;18.20;99.90;;;;;;4891855;29;20414;-58
2022/06/08 11:28:40;;;;;;;2.97;0.40;;;18.10;99.90;;;;;;4892445;29;20056;-59
2022/06/08 11:31:25;;;;;;;3.22;0.47;;;17.90;99.90;;;;;;4890122;29;20064;-57
2022/06/08 11:34:18;;;;;;;3.17;0.52;;;17.70;99.90;;;;;;4882480;29;20048;-59
2022/06/08 11:37:12;;;;;;;2.28;0.43;;;17.60;99.90;;;;;;4890260;29;20053;-58
2022/06/08 11:39:43;;;;;;;1.92;0.40;;;17.50;99.90;;;;;;4891544;29;20504;-56
2022/06/08 11:42:22;;;;;;;2.75;0.40;;;17.60;99.90;;;;;;4897824;29;20060;-57
2022/06/08 11:45:01;;;;;;;1.77;0.70;;;17.70;99.90;;;;;;4895586;29;20053;-56
2022/06/08 11:47:36;;;;;;;3.83;0.40;;;18.10;99.90;;;;;;4890453;29;20048;-58
2022/06/08 11:50:14;;;;;;;3.35;0.50;;;18.40;99.90;;;;;;4893013;29;20052;-60
2022/06/08 11:52:46;;;;;;;2.77;0.30;;;18.50;99.90;;;;;;4881259;29;20041;-56
2022/06/08 11:55:23;;;;;;;1.15;0.30;;;18.50;99.90;;;;;;4884567;29;20660;-57
2022/06/08 11:58:08;;;;;;;2.47;0.35;;;18.30;99.90;;;;;;4880605;29;20714;-57
2022/06/08 12:00:53;;;;;;;3.92;0.40;;;18.10;99.90;;;;;;4893074;29;20052;-60
2022/06/08 12:03:34;;;;;;;0.93;0.20;;;18.10;99.90;;;;;;4890741;29;20057;-58
2022/06/08 12:06:08;;;;;;;1.65;0.40;;;18.30;99.90;;;;;;4890545;29;20053;-58
2022/06/08 12:08:35;;;;;;;3.42;0.50;;;18.50;99.90;;;;;;4868946;29;20049;-60
2022/06/08 12:11:23;;;;;;;3.05;0.47;;;18.50;99.90;;;;;;4895714;29;20055;-58
2022/06/08 12:14:25;;;;;;;2.83;0.47;;;18.50;99.90;;;;;;4892672;29;20485;-59
2022/06/08 12:17:02;;;;;;;3.33;0.57;;;18.40;99.90;;;;;;4882117;29;20072;-58
2022/06/08 12:19:41;;;;;;;3.50;0.32;;;18.30;99.90;;;;;;4894441;29;20046;-59
2022/06/08 12:22:14;;;;;;;1.63;0.30;;;18.20;99.90;;;;;;4882726;29;20044;-59
2022/06/08 12:24:42;;;;;;;2.58;0.40;;;18.10;99.90;;;;;;4895480;29;20048;-59
2022/06/08 12:27:21;;;;;;;1.55;0.20;;;17.90;99.90;;;;;;4895164;29;20296;-59
2022/06/08 12:29:53;;;;;;;8.98;2.33;;;17.80;99.90;;;;;;4895034;29;20064;-58
2022/06/08 12:32:25;;;;;;;0.98;0.20;;;17.90;99.90;;;;;;4893951;29;20040;-59
2022/06/08 12:35:22;;;;;;;0.93;0.30;;;17.80;99.90;;;;;;4888943;29;20044;-58
2022/06/08 12:38:19;;;;;;;4.22;0.50;;;17.70;99.90;;;;;;4894609;29;20417;-58
2022/06/08 12:41:05;;;;;;;0.52;0.30;;;17.50;99.90;;;;;;4892733;29;20059;-58
2022/06/08 12:43:39;;;;;;;1.75;0.35;;;17.30;99.90;;;;;;4894518;29;20040;-59
2022/06/08 12:46:17;;;;;;;2.97;0.50;;;17.10;99.90;;;;;;4896541;29;20064;-60
2022/06/08 12:48:54;;;;;;;4.25;0.50;;;17.00;99.90;;;;;;4893343;29;20045;-60
2022/06/08 12:51:28;;;;;;;1.48;0.43;;;16.90;99.90;;;;;;4886238;29;20053;-61
2022/06/08 12:53:57;;;;;;;2.33;0.40;;;16.90;99.90;;;;;;4895466;29;20503;-59
2022/06/08 12:56:25;;;;;;;3.72;0.45;;;17.00;99.90;;;;;;4895151;29;20056;-59
2022/06/08 12:58:55;;;;;;;1.63;0.60;;;17.20;99.90;;;;;;4894227;29;20711;-60
2022/06/08 13:01:27;;;;;;;4.85;0.50;;;17.30;99.90;;;;;;4894087;29;20061;-59
2022/06/08 13:03:56;;;;;;;3.80;0.60;;;17.30;99.90;;;;;;4892356;29;20060;-59
2022/06/08 13:06:24;;;;;;;1.27;0.28;;;17.20;99.90;;;;;;4877526;29;20128;-58
2022/06/08 13:08:52;;;;;;;2.00;0.50;;;17.00;99.90;;;;;;4887441;29;20527;-59
2022/06/08 13:11:23;;;;;;;2.42;0.40;;;16.90;99.90;;;;;;4894926;29;20052;-59
2022/06/08 13:13:55;;;;;;;0.88;0.30;;;16.90;99.90;;;;;;4893690;29;20071;-59
2022/06/08 13:16:29;;;;;;;2.75;0.52;;;17.20;99.90;;;;;;4894652;29;20045;-59
2022/06/08 13:18:58;;;;;;;2.85;0.70;;;17.70;99.90;;;;;;4892731;29;20052;-57
2022/06/08 13:21:27;;;;;;;2.10;0.43;;;18.10;99.90;;;;;;4888769;29;20397;-58
2022/06/08 13:23:54;;;;;;;3.10;0.30;;;18.20;99.90;;;;;;4893322;29;20299;-57
2022/06/08 13:26:27;;;;;;;0.30;0.20;;;18.40;99.90;;;;;;4893518;29;20063;-58
2022/06/08 13:28:58;;;;;;;2.53;0.90;;;18.50;99.90;;;;;;4891768;29;20517;-58
2022/06/08 13:31:26;;;;;;;4.47;0.50;;;18.50;99.90;;;;;;4893917;29;20065;-59
2022/06/08 13:33:56;;;;;;;3.40;0.43;;;18.60;99.90;;;;;;4885193;29;20057;-59
2022/06/08 13:36:46;;;;;;;1.27;0.50;;;18.50;99.90;;;;;;4876784;29;20057;-58
2022/06/08 13:39:36;;;;;;;2.38;0.40;;;18.60;99.90;;;;;;4892233;29;20055;-57
2022/06/08 13:42:05;;;;;;;;;;;19.00;99.90;;;;;;4889958;29;20055;-59
2022/06/08 13:44:39;;;;;;;2.45;0.68;;;19.10;99.90;;;;;;4893831;29;19923;-59
2022/06/08 13:47:17;;;;;;;1.15;0.30;;;19.10;99.90;;;;;;4892287;29;20205;-59